createdAt,value
2023-08-08T00:00:19.366Z,65
2023-08-08T00:05:21.248Z,65
2023-08-08T00:10:22.934Z,65
2023-08-08T00:15:24.450Z,65
2023-08-08T00:20:26.372Z,65
2023-08-08T00:25:27.618Z,65
2023-08-08T00:30:29.306Z,65
2023-08-08T00:35:30.834Z,65
2023-08-08T00:40:32.610Z,65
2023-08-08T00:45:34.402Z,65
2023-08-08T00:50:35.976Z,66
2023-08-08T01:00:39.898Z,65
2023-08-08T01:30:51.105Z,65
2023-08-08T01:45:56.196Z,65
2023-08-08T02:16:05.769Z,65
2023-08-08T02:41:14.879Z,64
2023-08-08T03:06:23.151Z,65
2023-08-08T03:51:36.898Z,65
2023-08-08T03:56:39.075Z,65
2023-08-08T04:01:41.236Z,65
2023-08-08T04:06:42.568Z,64
2023-08-08T04:11:44.562Z,65
2023-08-08T04:16:46.315Z,65
2023-08-08T04:21:48.300Z,64
2023-08-08T04:26:49.629Z,64
2023-08-08T04:31:50.935Z,65
2023-08-08T04:36:52.636Z,65
2023-08-08T04:41:53.968Z,65
2023-08-08T04:46:55.586Z,65
2023-08-08T04:51:56.767Z,65
2023-08-08T04:56:58.385Z,64
2023-08-08T05:02:00.555Z,64
2023-08-08T05:07:01.617Z,65
2023-08-08T05:12:03.619Z,65
2023-08-08T05:17:05.393Z,64
2023-08-08T05:22:06.669Z,64
2023-08-08T05:27:08.017Z,64
2023-08-08T05:32:09.440Z,64
2023-08-08T05:37:16.935Z,64
2023-08-08T05:42:12.776Z,64
2023-08-08T05:47:14.072Z,64
2023-08-08T05:52:15.496Z,62
2023-08-08T05:57:17.485Z,62
2023-08-08T06:02:19.433Z,68
2023-08-08T06:07:20.989Z,62
2023-08-08T06:12:22.624Z,57
2023-08-08T06:17:24.069Z,56
2023-08-08T06:22:25.376Z,55
2023-08-08T06:27:27.212Z,53
2023-08-08T06:32:29.326Z,52
2023-08-08T06:37:30.952Z,53
2023-08-08T06:42:33.140Z,52
2023-08-08T06:47:34.663Z,48
2023-08-08T06:52:35.909Z,47
2023-08-08T06:57:38.009Z,47
2023-08-08T07:02:39.531Z,46
2023-08-08T07:07:41.365Z,46
2023-08-08T07:12:43.189Z,47
2023-08-08T07:17:44.908Z,44
2023-08-08T07:22:46.601Z,44
2023-08-08T07:27:48.220Z,44
2023-08-08T07:32:50.054Z,43
2023-08-08T07:37:51.245Z,43
2023-08-08T07:42:53.297Z,42
2023-08-08T07:47:55.535Z,41
2023-08-08T07:52:56.791Z,40
2023-08-08T07:57:58.750Z,39
2023-08-08T08:03:00.901Z,38
2023-08-08T08:08:02.057Z,37
2023-08-08T08:13:04.046Z,37
2023-08-08T08:18:06.080Z,36
2023-08-08T08:23:07.720Z,37
2023-08-08T08:28:09.395Z,36
2023-08-08T08:33:11.411Z,36
2023-08-08T08:38:12.661Z,36
2023-08-08T08:43:14.553Z,37
2023-08-08T08:48:17.671Z,36
2023-08-08T08:53:18.478Z,37
2023-08-08T08:58:20.591Z,36
2023-08-08T09:03:22.456Z,35
2023-08-08T09:08:24.500Z,35
2023-08-08T09:13:25.730Z,35
2023-08-08T09:18:27.724Z,34
2023-08-08T09:23:29.375Z,34
2023-08-08T09:28:31.176Z,34
2023-08-08T09:33:33.239Z,33
2023-08-08T09:38:34.410Z,33
2023-08-08T09:43:36.034Z,32
2023-08-08T09:48:37.419Z,32
2023-08-08T09:53:38.682Z,33
2023-08-08T09:58:40.237Z,33
2023-08-08T10:03:41.495Z,32
2023-08-08T10:08:43.489Z,33
2023-08-08T10:13:45.092Z,32
2023-08-08T10:18:47.022Z,31
2023-08-08T10:23:48.206Z,32
2023-08-08T10:28:49.649Z,31
2023-08-08T10:33:50.882Z,31
2023-08-08T10:38:52.454Z,31
2023-08-08T10:43:54.384Z,31
2023-08-08T10:48:55.695Z,31
2023-08-08T10:53:57.035Z,30
2023-08-08T10:58:58.555Z,30
2023-08-08T11:04:00.230Z,31
2023-08-08T11:09:01.649Z,31
2023-08-08T11:14:03.306Z,31
2023-08-08T11:19:04.738Z,31
2023-08-08T11:24:06.860Z,32
2023-08-08T11:29:08.736Z,34
2023-08-08T11:34:10.396Z,33
2023-08-08T11:39:11.676Z,30
2023-08-08T11:44:13.342Z,31
2023-08-08T11:49:15.128Z,31
2023-08-08T11:54:16.873Z,31
2023-08-08T11:59:18.120Z,31
2023-08-08T12:04:19.878Z,31
2023-08-08T12:09:21.580Z,31
2023-08-08T12:14:23.653Z,31
2023-08-08T12:19:25.758Z,32
2023-08-08T12:24:26.959Z,31
2023-08-08T12:29:28.483Z,31
2023-08-08T12:34:29.664Z,31
2023-08-08T12:39:31.101Z,31
2023-08-08T12:44:32.451Z,31
2023-08-08T12:49:34.474Z,31
2023-08-08T12:54:35.714Z,32
2023-08-08T12:59:37.509Z,32
2023-08-08T13:04:39.035Z,31
2023-08-08T13:09:40.299Z,31
2023-08-08T13:14:42.164Z,31
2023-08-08T13:19:43.828Z,31
2023-08-08T13:24:45.101Z,31
2023-08-08T13:29:52.948Z,31
2023-08-08T13:34:54.990Z,31
2023-08-08T13:39:56.431Z,31
2023-08-08T13:44:58.161Z,32
2023-08-08T13:50:00.076Z,32
2023-08-08T13:55:01.584Z,32
2023-08-08T14:00:03.451Z,32
2023-08-08T14:05:05.601Z,32
2023-08-08T14:10:07.620Z,31
2023-08-08T14:15:09.043Z,31
2023-08-08T14:20:11.173Z,32
2023-08-08T14:25:12.440Z,32
2023-08-08T14:30:14.599Z,33
2023-08-08T14:35:16.604Z,33
2023-08-08T14:40:18.492Z,33
2023-08-08T14:45:20.443Z,33
2023-08-08T14:50:21.646Z,33
2023-08-08T14:55:22.860Z,33
2023-08-08T15:00:24.082Z,33
2023-08-08T15:05:25.899Z,33
2023-08-08T15:10:27.461Z,33
2023-08-08T15:15:28.856Z,33
2023-08-08T15:20:30.820Z,33
2023-08-08T15:25:32.965Z,34
2023-08-08T15:30:34.248Z,34
2023-08-08T15:35:35.519Z,34
2023-08-08T16:00:45.131Z,34
2023-08-08T16:20:52.542Z,34
2023-08-08T16:30:55.918Z,34
2023-08-08T16:35:57.823Z,34
2023-08-08T16:40:59.707Z,34
2023-08-08T16:51:03.295Z,35
2023-08-08T17:11:09.282Z,36
2023-08-08T18:06:26.623Z,38
2023-08-08T18:36:36.592Z,40
2023-08-08T18:41:38.071Z,40
2023-08-08T18:51:41.389Z,41
2023-08-08T18:56:42.747Z,41
2023-08-08T19:01:44.952Z,41
2023-08-08T19:06:46.686Z,42
2023-08-08T19:11:47.836Z,43
2023-08-08T19:16:49.266Z,43
2023-08-08T19:21:51.454Z,43
2023-08-08T19:26:53.361Z,44
2023-08-08T19:31:55.423Z,43
2023-08-08T19:36:56.830Z,44
2023-08-08T19:41:58.441Z,45
2023-08-08T19:47:00.338Z,45
2023-08-08T19:52:02.000Z,45
2023-08-08T19:57:03.478Z,45
2023-08-08T20:02:05.484Z,45
2023-08-08T20:07:07.312Z,45
2023-08-08T20:12:08.710Z,46
2023-08-08T20:17:10.196Z,45
2023-08-08T20:22:11.734Z,46
2023-08-08T20:27:13.178Z,46
2023-08-08T20:32:14.629Z,46
2023-08-08T20:37:16.343Z,46
2023-08-08T20:42:18.169Z,47
2023-08-08T20:47:19.864Z,47
2023-08-08T20:52:21.420Z,48
2023-08-08T20:57:23.177Z,49
2023-08-08T21:02:24.687Z,49
2023-08-08T21:07:26.194Z,49
2023-08-08T21:12:28.322Z,50
2023-08-08T21:17:29.651Z,49
2023-08-08T21:22:31.122Z,49
2023-08-08T21:27:32.866Z,50
2023-08-08T21:32:34.151Z,50
2023-08-08T21:37:35.610Z,51
2023-08-08T21:42:37.280Z,50
2023-08-08T21:47:39.301Z,51
2023-08-08T21:52:40.997Z,51
2023-08-08T21:57:42.866Z,51
2023-08-08T22:02:44.836Z,51
2023-08-08T22:07:46.576Z,51
2023-08-08T22:12:48.539Z,51
2023-08-08T22:17:57.094Z,50
2023-08-08T22:22:52.520Z,51
2023-08-08T22:27:54.127Z,51
2023-08-08T22:32:55.831Z,51
2023-08-08T22:37:57.562Z,51
2023-08-08T22:42:58.938Z,52
2023-08-08T22:48:00.417Z,52
2023-08-08T22:53:02.585Z,52
2023-08-08T22:58:05.605Z,52
2023-08-08T23:03:04.897Z,52
2023-08-08T23:08:06.424Z,52
2023-08-08T23:13:07.620Z,52
2023-08-08T23:18:09.763Z,53
2023-08-08T23:23:11.829Z,53
2023-08-08T23:28:13.808Z,53
2023-08-08T23:33:15.203Z,53
2023-08-08T23:38:16.498Z,53
2023-08-08T23:43:17.940Z,53
2023-08-08T23:48:19.311Z,54
2023-08-08T23:53:21.052Z,53
2023-08-08T23:58:22.970Z,53
